createdAt,value
2019-01-14T00:00:50.798Z,4.98
2019-01-14T00:01:50.787Z,5.05
2019-01-14T00:02:50.789Z,4.98
2019-01-14T00:03:50.766Z,4.91
2019-01-14T00:04:55.559Z,4.77
2019-01-14T00:05:51.740Z,4.95
2019-01-14T00:06:50.733Z,4.88
2019-01-14T00:07:50.758Z,4.99
2019-01-14T00:08:50.710Z,4.92
2019-01-14T00:09:50.697Z,4.94
2019-01-14T00:10:50.687Z,4.94
2019-01-14T00:11:50.675Z,4.89
2019-01-14T00:12:50.664Z,4.95
2019-01-14T00:13:50.668Z,4.92
2019-01-14T00:14:50.644Z,4.98
2019-01-14T00:15:50.648Z,4.92
2019-01-14T00:16:50.623Z,4.96
2019-01-14T00:17:50.610Z,4.95
2019-01-14T00:18:50.597Z,4.86
2019-01-14T00:19:50.587Z,4.77
2019-01-14T00:20:50.607Z,4.94
2019-01-14T00:21:50.567Z,4.92
2019-01-14T00:22:50.555Z,4.95
2019-01-14T00:23:50.543Z,4.98
2019-01-14T00:24:50.533Z,4.99
2019-01-14T00:25:50.521Z,4.96
2019-01-14T00:26:50.546Z,4.96
2019-01-14T00:27:50.501Z,4.86
2019-01-14T00:28:50.487Z,4.76
2019-01-14T00:29:50.476Z,4.77
2019-01-14T00:30:50.467Z,4.84
2019-01-14T00:31:50.455Z,4.79
2019-01-14T00:32:50.458Z,4.89
2019-01-14T00:33:50.435Z,4.89
2019-01-14T00:34:50.420Z,4.94
2019-01-14T00:35:50.416Z,4.95
2019-01-14T00:36:50.404Z,4.84
2019-01-14T00:37:50.421Z,4.96
2019-01-14T00:38:50.375Z,4.84
2019-01-14T00:39:50.368Z,4.89
2019-01-14T00:40:50.354Z,4.80
2019-01-14T00:41:50.343Z,4.76
2019-01-14T00:42:50.335Z,4.69
2019-01-14T00:43:50.358Z,4.80
2019-01-14T00:44:50.312Z,4.75
2019-01-14T00:45:50.298Z,4.73
2019-01-14T00:46:50.288Z,4.73
2019-01-14T00:47:50.276Z,4.72
2019-01-14T00:48:50.266Z,4.69
2019-01-14T00:49:50.277Z,4.62
2019-01-14T00:50:50.244Z,4.61
2019-01-14T00:51:50.237Z,4.62
2019-01-14T00:52:50.221Z,4.54
2019-01-14T00:53:50.207Z,4.52
2019-01-14T00:54:50.200Z,4.50
2019-01-14T00:55:50.226Z,4.58
2019-01-14T00:56:50.179Z,4.57
2019-01-14T00:57:50.168Z,4.62
2019-01-14T00:58:50.153Z,4.54
2019-01-14T00:59:50.144Z,4.59
2019-01-14T01:00:50.133Z,4.57
2019-01-14T01:01:50.158Z,4.55
2019-01-14T01:02:50.111Z,4.55
2019-01-14T01:03:50.102Z,4.65
2019-01-14T01:04:50.087Z,4.55
2019-01-14T01:05:50.104Z,4.47
2019-01-14T01:06:50.066Z,4.44
2019-01-14T01:07:50.070Z,4.51
2019-01-14T01:08:50.045Z,4.47
2019-01-14T01:09:50.032Z,4.50
2019-01-14T01:10:50.022Z,4.57
2019-01-14T01:11:50.023Z,4.52
2019-01-14T01:12:50.013Z,4.50
2019-01-14T01:13:49.988Z,4.37
2019-01-14T01:14:49.977Z,4.43
2019-01-14T01:15:49.967Z,4.37
2019-01-14T01:16:49.987Z,4.50
2019-01-14T01:17:49.943Z,4.57
2019-01-14T01:18:49.940Z,4.57
2019-01-14T01:19:49.922Z,4.50
2019-01-14T01:20:49.912Z,4.54
2019-01-14T01:21:49.899Z,4.46
2019-01-14T01:22:49.921Z,4.47
2019-01-14T01:23:49.875Z,4.39
2019-01-14T01:24:49.867Z,4.33
2019-01-14T01:25:49.853Z,4.37
2019-01-14T01:26:49.845Z,4.33
2019-01-14T01:27:49.832Z,4.29
2019-01-14T01:28:49.851Z,4.29
2019-01-14T01:29:49.810Z,4.26
2019-01-14T01:30:49.808Z,4.22
2019-01-14T01:31:49.788Z,4.26
2019-01-14T01:32:49.776Z,4.08
2019-01-14T01:33:49.766Z,4.12
2019-01-14T01:34:49.766Z,4.00
2019-01-14T01:35:49.745Z,4.08
2019-01-14T01:36:49.731Z,4.15
2019-01-14T01:37:49.725Z,4.10
2019-01-14T01:38:49.712Z,4.08
2019-01-14T01:39:49.714Z,4.00
2019-01-14T01:40:49.689Z,4.00
2019-01-14T01:41:49.678Z,4.00
2019-01-14T01:42:49.668Z,4.00
2019-01-14T01:43:49.655Z,3.97
2019-01-14T01:44:49.645Z,3.98
2019-01-14T01:45:49.669Z,3.98
2019-01-14T01:46:49.627Z,3.94
2019-01-14T01:47:49.613Z,4.08
2019-01-14T01:48:57.147Z,4.01
2019-01-14T01:49:50.529Z,3.97
2019-01-14T01:50:49.578Z,4.03
2019-01-14T01:51:49.578Z,3.98
2019-01-14T01:52:49.556Z,3.97
2019-01-14T01:53:49.547Z,3.96
2019-01-14T01:54:49.535Z,3.94
2019-01-14T01:55:49.529Z,3.98
2019-01-14T01:56:49.552Z,3.96
2019-01-14T01:57:49.502Z,3.88
2019-01-14T01:58:49.497Z,3.96
2019-01-14T01:59:49.481Z,3.98
2019-01-14T02:00:49.469Z,4.07
2019-01-14T02:01:49.457Z,3.98
2019-01-14T02:02:49.458Z,4.07
2019-01-14T02:03:49.440Z,4.04
2019-01-14T02:04:49.428Z,3.98
2019-01-14T02:05:49.413Z,3.98
2019-01-14T02:06:49.415Z,4.04
2019-01-14T02:07:49.411Z,4.03
2019-01-14T02:08:49.382Z,4.03
2019-01-14T02:09:49.378Z,4.01
2019-01-14T02:10:49.358Z,3.98
2019-01-14T02:11:49.346Z,3.98
2019-01-14T02:12:49.337Z,4.04
2019-01-14T02:13:49.350Z,3.98
2019-01-14T02:14:49.317Z,4.06
2019-01-14T02:15:49.304Z,4.03
2019-01-14T02:16:49.301Z,3.97
2019-01-14T02:17:49.282Z,4.03
2019-01-14T02:18:49.272Z,3.98
2019-01-14T02:19:49.273Z,3.98
2019-01-14T02:20:49.249Z,4.00
2019-01-14T02:21:49.261Z,4.06
2019-01-14T02:22:49.230Z,4.01
2019-01-14T02:23:49.222Z,4.07
2019-01-14T02:24:49.207Z,4.14
2019-01-14T02:25:49.197Z,3.98
2019-01-14T02:26:49.186Z,3.98
2019-01-14T02:27:49.185Z,4.03
2019-01-14T02:28:49.163Z,4.01
2019-01-14T02:29:49.154Z,4.00
2019-01-14T02:30:49.142Z,3.96
2019-01-14T02:31:49.129Z,3.98
2019-01-14T02:32:49.151Z,4.04
2019-01-14T02:33:49.107Z,3.96
2019-01-14T02:34:49.096Z,3.97
2019-01-14T02:35:49.093Z,3.89
2019-01-14T02:36:49.079Z,3.92
2019-01-14T02:37:49.074Z,3.89
2019-01-14T02:38:49.072Z,3.86
2019-01-14T02:39:49.041Z,3.80
2019-01-14T02:40:49.034Z,4.00
2019-01-14T02:41:49.025Z,3.94
2019-01-14T02:42:49.015Z,4.03
2019-01-14T02:43:49.014Z,4.01
2019-01-14T02:44:48.988Z,3.78
2019-01-14T02:45:48.975Z,3.79
2019-01-14T02:46:48.965Z,3.82
2019-01-14T02:47:48.959Z,3.76
2019-01-14T02:48:48.976Z,3.62
2019-01-14T02:49:48.933Z,3.65
2019-01-14T02:50:48.921Z,3.65
2019-01-14T02:51:48.912Z,3.52
2019-01-14T02:52:48.901Z,3.53
2019-01-14T02:53:48.897Z,3.57
2019-01-14T02:54:48.912Z,3.53
2019-01-14T02:55:48.868Z,3.50
2019-01-14T02:56:48.857Z,3.62
2019-01-14T02:57:48.845Z,3.54
2019-01-14T02:58:48.844Z,3.52
2019-01-14T02:59:48.833Z,3.49
2019-01-14T03:00:48.856Z,3.33
2019-01-14T03:01:48.804Z,3.52
2019-01-14T03:02:48.793Z,3.52
2019-01-14T03:03:48.781Z,3.44
2019-01-14T03:04:48.768Z,3.39
2019-01-14T03:05:48.763Z,3.31
2019-01-14T03:06:57.419Z,3.31
2019-01-14T03:07:49.755Z,3.47
2019-01-14T03:08:48.726Z,3.39
2019-01-14T03:09:48.714Z,3.42
2019-01-14T03:10:48.701Z,3.42
2019-01-14T03:11:48.692Z,3.36
2019-01-14T03:12:48.688Z,3.31
2019-01-14T03:13:48.704Z,3.40
2019-01-14T03:14:48.660Z,3.39
2019-01-14T03:15:48.650Z,3.44
2019-01-14T03:16:48.638Z,3.40
2019-01-14T03:17:48.626Z,3.36
2019-01-14T03:18:48.624Z,3.39
2019-01-14T03:19:48.617Z,3.36
2019-01-14T03:20:48.595Z,3.39
2019-01-14T03:21:48.584Z,3.30
2019-01-14T03:22:48.573Z,3.36
2019-01-14T03:23:48.560Z,3.43
2019-01-14T03:24:48.568Z,3.36
2019-01-14T03:25:57.787Z,3.27
2019-01-14T03:26:49.527Z,3.24
2019-01-14T03:27:48.518Z,3.20
2019-01-14T03:28:48.507Z,3.20
2019-01-14T03:29:48.496Z,3.27
2019-01-14T03:30:48.521Z,3.20
2019-01-14T03:31:48.478Z,3.23
2019-01-14T03:32:48.472Z,3.09
2019-01-14T03:33:48.453Z,3.05
2019-01-14T03:34:48.441Z,3.09
2019-01-14T03:35:48.451Z,3.09
2019-01-14T03:36:48.424Z,3.03
2019-01-14T03:37:48.411Z,3.02
2019-01-14T03:38:48.405Z,3.00
2019-01-14T03:39:48.386Z,2.89
2019-01-14T03:40:48.378Z,2.87
2019-01-14T03:41:48.377Z,2.89
2019-01-14T03:42:48.361Z,2.85
2019-01-14T03:43:48.357Z,2.84
2019-01-14T03:44:48.335Z,2.79
2019-01-14T03:45:48.321Z,2.82
2019-01-14T03:46:48.322Z,2.84
2019-01-14T03:47:48.343Z,2.81
2019-01-14T03:48:48.286Z,2.84
2019-01-14T03:49:48.277Z,2.73
2019-01-14T03:50:48.273Z,2.77
2019-01-14T03:51:48.257Z,2.74
2019-01-14T03:52:48.244Z,2.63
2019-01-14T03:53:48.253Z,2.77
2019-01-14T03:54:48.224Z,2.61
2019-01-14T03:55:48.211Z,2.70
2019-01-14T03:56:48.205Z,2.64
2019-01-14T03:57:48.188Z,2.71
2019-01-14T03:58:48.177Z,2.67
2019-01-14T03:59:48.181Z,2.64
2019-01-14T04:00:48.155Z,2.63
2019-01-14T04:01:48.144Z,2.53
2019-01-14T04:02:48.138Z,2.61
2019-01-14T04:03:48.123Z,2.63
2019-01-14T04:04:48.141Z,2.64
2019-01-14T04:05:48.101Z,2.53
2019-01-14T04:06:48.091Z,2.49
2019-01-14T04:07:48.092Z,2.51
2019-01-14T04:08:48.078Z,2.48
2019-01-14T04:09:48.057Z,2.46
2019-01-14T04:10:48.059Z,2.53
2019-01-14T04:11:48.055Z,2.63
2019-01-14T04:12:48.025Z,2.51
2019-01-14T04:13:48.014Z,2.63
2019-01-14T04:14:48.007Z,2.55
2019-01-14T04:15:48.000Z,2.63
2019-01-14T04:16:47.982Z,2.53
2019-01-14T04:17:48.002Z,2.63
2019-01-14T04:18:47.959Z,2.55
2019-01-14T04:19:47.950Z,2.56
2019-01-14T04:20:47.938Z,2.52
2019-01-14T04:21:47.934Z,2.52
2019-01-14T04:22:47.917Z,2.51
2019-01-14T04:23:47.927Z,2.44
2019-01-14T04:24:47.893Z,2.41
2019-01-14T04:25:47.886Z,2.35
2019-01-14T04:26:47.872Z,2.40
2019-01-14T04:27:47.866Z,2.34
2019-01-14T04:28:47.850Z,2.40
2019-01-14T04:29:47.853Z,2.41
2019-01-14T04:30:47.828Z,2.37
2019-01-14T04:31:47.817Z,2.45
2019-01-14T04:32:47.842Z,2.41
2019-01-14T04:33:47.804Z,2.55
2019-01-14T04:34:47.782Z,2.61
2019-01-14T04:35:47.775Z,2.64
2019-01-14T04:36:47.763Z,2.79
2019-01-14T04:37:47.750Z,2.70
2019-01-14T04:38:47.753Z,2.66
2019-01-14T04:39:47.735Z,2.76
2019-01-14T04:40:47.717Z,2.66
2019-01-14T04:41:47.706Z,2.74
2019-01-14T04:42:47.707Z,2.74
2019-01-14T04:43:47.684Z,2.67
2019-01-14T04:44:47.706Z,2.67
2019-01-14T04:45:47.670Z,2.77
2019-01-14T04:46:47.662Z,2.71
2019-01-14T04:47:47.641Z,2.77
2019-01-14T04:48:47.631Z,2.64
2019-01-14T04:49:47.624Z,2.61
2019-01-14T04:50:47.626Z,2.59
2019-01-14T04:51:47.601Z,2.59
2019-01-14T04:52:47.585Z,2.55
2019-01-14T04:53:47.576Z,2.63
2019-01-14T04:54:47.565Z,2.63
2019-01-14T04:55:47.589Z,2.70
2019-01-14T04:56:47.544Z,2.71
2019-01-14T04:57:47.535Z,2.81
2019-01-14T04:58:47.525Z,2.81
2019-01-14T04:59:47.512Z,2.82
2019-01-14T05:00:47.503Z,2.74
2019-01-14T05:01:47.500Z,2.74
2019-01-14T05:02:47.478Z,2.74
2019-01-14T05:03:47.466Z,2.63
2019-01-14T05:04:47.495Z,2.64
2019-01-14T05:05:47.447Z,2.61
2019-01-14T05:06:47.435Z,2.64
2019-01-14T05:07:47.422Z,2.58
2019-01-14T05:08:47.412Z,2.58
2019-01-14T05:09:47.400Z,2.58
2019-01-14T05:10:47.427Z,2.58
2019-01-14T05:11:47.379Z,2.53
2019-01-14T05:12:47.370Z,2.52
2019-01-14T05:13:47.364Z,2.58
2019-01-14T05:14:47.349Z,2.70
2019-01-14T05:15:47.341Z,2.66
2019-01-14T05:16:47.336Z,2.59
2019-01-14T05:17:47.317Z,2.63
2019-01-14T05:18:47.301Z,2.66
2019-01-14T05:19:47.291Z,2.64
2019-01-14T05:20:47.298Z,2.70
2019-01-14T05:21:47.304Z,2.81
2019-01-14T05:22:47.260Z,2.71
2019-01-14T05:23:47.247Z,2.73
2019-01-14T05:24:47.238Z,2.73
2019-01-14T05:25:47.229Z,2.92
2019-01-14T05:26:47.213Z,2.85
2019-01-14T05:27:47.233Z,2.88
2019-01-14T05:28:47.192Z,2.98
2019-01-14T05:29:47.181Z,3.09
2019-01-14T05:30:47.171Z,3.15
2019-01-14T05:31:47.164Z,3.10
2019-01-14T05:32:47.147Z,3.15
2019-01-14T05:33:47.149Z,3.15
2019-01-14T05:34:47.128Z,3.18
2019-01-14T05:35:47.117Z,3.13
2019-01-14T05:36:47.104Z,3.16
2019-01-14T05:37:47.113Z,3.16
2019-01-14T05:38:47.082Z,3.10
2019-01-14T05:39:47.104Z,3.00
2019-01-14T05:40:47.059Z,3.03
2019-01-14T05:41:47.051Z,3.03
2019-01-14T05:42:47.038Z,3.02
2019-01-14T05:43:47.034Z,3.00
2019-01-14T05:44:47.016Z,3.00
2019-01-14T05:45:47.017Z,3.00
2019-01-14T05:46:46.996Z,2.95
2019-01-14T05:47:46.984Z,3.03
2019-01-14T05:48:46.973Z,3.02
2019-01-14T05:49:46.965Z,3.00
2019-01-14T05:50:46.984Z,3.03
2019-01-14T05:51:46.939Z,3.05
2019-01-14T05:52:46.934Z,3.07
2019-01-14T05:53:46.919Z,2.98
2019-01-14T05:54:46.917Z,2.97
2019-01-14T05:55:46.902Z,2.94
2019-01-14T05:56:46.897Z,2.95
2019-01-14T05:57:46.918Z,2.95
2019-01-14T05:58:46.862Z,3.00
2019-01-14T05:59:46.855Z,2.89
2019-01-14T06:00:46.841Z,2.91
2019-01-14T06:01:46.832Z,2.92
2019-01-14T06:02:46.819Z,2.95
2019-01-14T06:03:46.821Z,3.00
2019-01-14T06:04:46.796Z,3.02
2019-01-14T06:05:46.786Z,3.00
2019-01-14T06:06:46.773Z,3.02
2019-01-14T06:07:46.814Z,3.05
2019-01-14T06:08:46.751Z,2.98
2019-01-14T06:09:46.742Z,2.94
2019-01-14T06:10:46.731Z,2.92
2019-01-14T06:11:46.719Z,2.89
2019-01-14T06:12:46.707Z,2.82
2019-01-14T06:13:46.741Z,2.84
2019-01-14T06:14:46.687Z,2.81
2019-01-14T06:15:46.675Z,2.81
2019-01-14T06:16:46.666Z,2.77
2019-01-14T06:17:46.653Z,2.76
2019-01-14T06:18:46.643Z,2.77
2019-01-14T06:19:46.650Z,2.84
2019-01-14T06:20:46.620Z,2.77
2019-01-14T06:21:46.608Z,2.81
2019-01-14T06:22:46.600Z,2.77
2019-01-14T06:23:46.587Z,2.77
2019-01-14T06:24:46.588Z,2.79
2019-01-14T06:25:46.571Z,2.81
2019-01-14T06:26:46.555Z,2.74
2019-01-14T06:27:46.543Z,2.76
2019-01-14T06:28:46.536Z,2.82
2019-01-14T06:29:46.534Z,2.91
2019-01-14T06:30:46.528Z,2.74
2019-01-14T06:31:46.505Z,2.81
2019-01-14T06:32:46.491Z,2.88
2019-01-14T06:33:46.479Z,2.85
2019-01-14T06:34:46.476Z,2.84
2019-01-14T06:35:46.459Z,2.77
2019-01-14T06:36:46.458Z,2.91
2019-01-14T06:37:52.287Z,2.92
2019-01-14T06:38:47.422Z,3.02
2019-01-14T06:39:46.414Z,3.10
2019-01-14T06:40:46.416Z,3.00
2019-01-14T06:41:46.403Z,3.02
2019-01-14T06:42:46.390Z,3.00
2019-01-14T06:43:46.372Z,2.98
2019-01-14T06:44:46.356Z,3.06
2019-01-14T06:45:46.346Z,3.00
2019-01-14T06:46:46.348Z,3.00
2019-01-14T06:47:46.324Z,3.09
2019-01-14T06:48:46.326Z,3.13
2019-01-14T06:49:46.309Z,3.13
2019-01-14T06:50:46.293Z,3.13
2019-01-14T06:51:46.282Z,3.15
2019-01-14T06:52:46.284Z,3.13
2019-01-14T06:53:46.293Z,3.10
2019-01-14T06:54:46.249Z,2.92
2019-01-14T06:55:46.243Z,2.79
2019-01-14T06:56:46.232Z,2.61
2019-01-14T06:57:46.219Z,2.45
2019-01-14T06:58:46.206Z,2.30
2019-01-14T06:59:46.229Z,2.37
2019-01-14T07:00:46.182Z,2.19
2019-01-14T07:01:46.172Z,2.09
2019-01-14T07:02:46.167Z,2.09
2019-01-14T07:03:46.157Z,2.08
2019-01-14T07:04:46.143Z,2.09
2019-01-14T07:05:46.141Z,2.04
2019-01-14T07:06:46.115Z,2.10
2019-01-14T07:07:46.107Z,2.02
2019-01-14T07:08:46.102Z,2.06
2019-01-14T07:09:46.087Z,2.09
2019-01-14T07:10:46.086Z,2.13
2019-01-14T07:11:46.063Z,2.12
2019-01-14T07:12:46.051Z,2.16
2019-01-14T07:13:46.041Z,2.12
2019-01-14T07:14:46.037Z,2.16
2019-01-14T07:15:46.037Z,2.26
2019-01-14T07:16:46.007Z,2.20
2019-01-14T07:17:45.996Z,2.31
2019-01-14T07:18:45.988Z,2.38
2019-01-14T07:19:45.974Z,2.31
2019-01-14T07:20:45.996Z,2.30
2019-01-14T07:21:45.960Z,2.37
2019-01-14T07:22:45.941Z,2.30
2019-01-14T07:23:45.935Z,2.40
2019-01-14T07:24:45.919Z,2.41
2019-01-14T07:25:45.910Z,2.45
2019-01-14T07:26:45.914Z,2.48
2019-01-14T07:27:45.894Z,2.52
2019-01-14T07:28:45.900Z,2.49
2019-01-14T07:29:45.866Z,2.53
2019-01-14T07:30:45.853Z,2.52
2019-01-14T07:31:45.843Z,2.51
2019-01-14T07:32:45.834Z,2.56
2019-01-14T07:33:45.827Z,2.55
2019-01-14T07:34:45.823Z,2.67
2019-01-14T07:35:45.798Z,2.63
2019-01-14T07:36:45.801Z,2.55
2019-01-14T07:37:45.777Z,2.67
2019-01-14T07:38:45.769Z,2.61
2019-01-14T07:39:45.758Z,2.70
2019-01-14T07:40:45.745Z,2.67
2019-01-14T07:41:45.769Z,2.69
2019-01-14T07:42:45.722Z,2.66
2019-01-14T07:43:45.720Z,2.66
2019-01-14T07:44:45.700Z,2.70
2019-01-14T07:45:45.698Z,2.70
2019-01-14T07:46:45.678Z,2.71
2019-01-14T07:47:45.680Z,2.69
2019-01-14T07:48:45.657Z,2.77
2019-01-14T07:49:45.647Z,2.79
2019-01-14T07:50:45.638Z,2.69
2019-01-14T07:51:45.629Z,2.64
2019-01-14T07:52:45.652Z,2.77
2019-01-14T07:53:45.603Z,2.69
2019-01-14T07:54:45.590Z,2.66
2019-01-14T07:55:45.584Z,2.81
2019-01-14T07:56:45.570Z,2.76
2019-01-14T07:57:45.563Z,2.77
2019-01-14T07:58:45.569Z,2.77
2019-01-14T07:59:45.534Z,2.82
2019-01-14T08:00:45.527Z,2.77
2019-01-14T08:01:45.513Z,2.73
2019-01-14T08:02:45.505Z,2.73
2019-01-14T08:03:45.498Z,2.77
2019-01-14T08:04:45.494Z,2.77
2019-01-14T08:05:45.469Z,2.79
2019-01-14T08:06:45.462Z,2.84
2019-01-14T08:07:45.448Z,2.76
2019-01-14T08:08:45.437Z,2.73
2019-01-14T08:09:45.452Z,2.76
2019-01-14T08:10:45.432Z,2.73
2019-01-14T08:11:45.405Z,2.74
2019-01-14T08:12:45.393Z,2.82
2019-01-14T08:13:45.381Z,2.77
2019-01-14T08:14:45.392Z,2.81
2019-01-14T08:15:45.363Z,2.81
2019-01-14T08:16:45.356Z,2.77
2019-01-14T08:17:45.338Z,2.85
2019-01-14T08:18:45.326Z,2.73
2019-01-14T08:19:45.317Z,2.77
2019-01-14T08:20:45.335Z,2.76
2019-01-14T08:21:45.295Z,2.82
2019-01-14T08:22:45.289Z,2.84
2019-01-14T08:23:45.272Z,2.77
2019-01-14T08:24:45.262Z,2.74
2019-01-14T08:25:45.267Z,2.76
2019-01-14T08:26:45.251Z,2.77
2019-01-14T08:27:45.253Z,2.84
2019-01-14T08:28:45.223Z,2.84
2019-01-14T08:29:45.206Z,2.88
2019-01-14T08:30:45.197Z,2.87
2019-01-14T08:31:45.187Z,2.81
2019-01-14T08:32:45.194Z,2.79
2019-01-14T08:33:45.163Z,2.77
2019-01-14T08:34:45.157Z,2.88
2019-01-14T08:35:45.141Z,2.87
2019-01-14T08:36:45.130Z,2.87
2019-01-14T08:37:45.120Z,2.88
2019-01-14T08:38:45.120Z,2.85
2019-01-14T08:39:45.122Z,2.92
2019-01-14T08:40:45.087Z,2.84
2019-01-14T08:41:45.086Z,2.82
2019-01-14T08:42:45.074Z,2.85
2019-01-14T08:43:45.062Z,2.88
2019-01-14T08:44:45.044Z,2.76
2019-01-14T08:45:45.048Z,2.74
2019-01-14T08:46:45.041Z,2.81
2019-01-14T08:47:45.014Z,2.76
2019-01-14T08:48:48.761Z,2.74
2019-01-14T08:49:44.991Z,2.64
2019-01-14T08:50:44.979Z,2.77
2019-01-14T08:51:44.967Z,2.79
2019-01-14T08:52:44.989Z,2.84
2019-01-14T08:53:44.947Z,2.84
2019-01-14T08:54:44.933Z,2.73
2019-01-14T08:55:44.930Z,2.81
2019-01-14T08:56:44.911Z,2.77
2019-01-14T08:57:44.900Z,2.76
2019-01-14T08:58:44.902Z,2.81
2019-01-14T08:59:44.879Z,2.77
2019-01-14T09:00:44.882Z,2.77
2019-01-14T09:01:44.864Z,2.84
2019-01-14T09:02:44.848Z,2.79
2019-01-14T09:03:44.834Z,2.77
2019-01-14T09:04:44.825Z,2.85
2019-01-14T09:05:44.829Z,2.85
2019-01-14T09:06:44.801Z,2.82
2019-01-14T09:07:44.797Z,2.87
2019-01-14T09:08:44.781Z,2.88
2019-01-14T09:09:44.769Z,2.87
2019-01-14T09:10:44.777Z,2.92
2019-01-14T09:11:44.749Z,2.88
2019-01-14T09:12:44.738Z,2.95
2019-01-14T09:13:44.729Z,2.87
2019-01-14T09:14:44.715Z,2.88
2019-01-14T09:15:44.730Z,2.84
2019-01-14T09:16:44.694Z,2.82
2019-01-14T09:17:44.686Z,2.82
2019-01-14T09:18:44.673Z,2.79
2019-01-14T09:19:44.668Z,2.76
2019-01-14T09:20:44.651Z,2.71
2019-01-14T09:21:44.668Z,2.74
2019-01-14T09:22:44.629Z,2.61
2019-01-14T09:23:44.615Z,2.63
2019-01-14T09:24:44.606Z,2.66
2019-01-14T09:25:44.602Z,2.64
2019-01-14T09:26:45.057Z,2.71
2019-01-14T09:27:44.585Z,2.71
2019-01-14T09:28:44.582Z,2.74
2019-01-14T09:29:44.550Z,2.81
2019-01-14T09:30:44.543Z,2.89
2019-01-14T09:31:44.530Z,3.02
2019-01-14T09:32:44.522Z,2.97
2019-01-14T09:33:44.508Z,2.97
2019-01-14T09:34:44.511Z,3.06
2019-01-14T09:35:44.487Z,3.05
2019-01-14T09:36:44.474Z,2.97
2019-01-14T09:37:44.464Z,2.97
2019-01-14T09:38:44.460Z,2.88
2019-01-14T09:39:44.455Z,2.87
2019-01-14T09:40:44.444Z,2.81
2019-01-14T09:41:44.457Z,2.81
2019-01-14T09:42:44.408Z,2.77
2019-01-14T09:43:44.399Z,2.81
2019-01-14T09:44:44.394Z,2.88
2019-01-14T09:45:44.377Z,2.87
2019-01-14T09:46:44.367Z,2.87
2019-01-14T09:47:44.370Z,2.89
2019-01-14T09:48:44.348Z,2.89
2019-01-14T09:49:45.673Z,3.06
2019-01-14T09:50:44.325Z,2.97
2019-01-14T09:51:44.326Z,3.09
2019-01-14T09:52:51.843Z,3.13
2019-01-14T09:53:44.290Z,3.21
2019-01-14T09:54:44.279Z,3.23
2019-01-14T09:55:44.265Z,3.31
2019-01-14T09:56:44.291Z,3.25
2019-01-14T09:57:44.246Z,3.30
2019-01-14T09:58:44.236Z,3.34
2019-01-14T09:59:44.234Z,3.27
2019-01-14T10:00:44.214Z,3.28
2019-01-14T10:01:44.202Z,3.39
2019-01-14T10:02:44.214Z,3.31
2019-01-14T10:03:44.247Z,3.36
2019-01-14T10:04:44.169Z,3.34
2019-01-14T10:05:44.160Z,3.36
2019-01-14T10:06:44.513Z,3.24
2019-01-14T10:07:44.140Z,3.28
2019-01-14T10:08:44.159Z,3.27
2019-01-14T10:09:44.113Z,3.21
2019-01-14T10:10:44.104Z,3.09
2019-01-14T10:11:44.092Z,3.18
2019-01-14T10:12:44.180Z,3.12
2019-01-14T10:13:44.075Z,3.15
2019-01-14T10:14:44.058Z,3.07
2019-01-14T10:15:44.049Z,3.18
2019-01-14T10:16:44.043Z,3.12
2019-01-14T10:17:44.027Z,3.13
2019-01-14T10:18:44.028Z,3.10
2019-01-14T10:19:44.009Z,3.13
2019-01-14T10:20:45.276Z,3.12
2019-01-14T10:21:43.985Z,3.18
2019-01-14T10:22:43.984Z,3.21
2019-01-14T10:23:44.009Z,3.23
2019-01-14T10:24:43.949Z,3.33
2019-01-14T10:25:43.944Z,3.31
2019-01-14T10:26:43.931Z,3.30
2019-01-14T10:27:43.919Z,3.30
2019-01-14T10:28:43.907Z,3.43
2019-01-14T10:29:43.909Z,3.34
2019-01-14T10:30:43.885Z,3.34
2019-01-14T10:31:43.879Z,3.43
2019-01-14T10:32:43.865Z,3.36
2019-01-14T10:33:43.888Z,3.49
2019-01-14T10:34:43.840Z,3.58
2019-01-14T10:35:43.831Z,3.54
2019-01-14T10:36:43.821Z,3.50
2019-01-14T10:37:43.810Z,3.52
2019-01-14T10:38:50.139Z,3.65
2019-01-14T10:39:44.798Z,3.57
2019-01-14T10:40:43.810Z,3.70
2019-01-14T10:41:43.766Z,3.82
2019-01-14T10:42:43.755Z,3.71
2019-01-14T10:43:43.748Z,3.76
2019-01-14T10:44:43.732Z,3.71
2019-01-14T10:45:43.719Z,3.76
2019-01-14T10:46:43.722Z,3.60
2019-01-14T10:47:43.700Z,3.78
2019-01-14T10:48:43.688Z,3.78
2019-01-14T10:49:43.683Z,3.67
2019-01-14T10:50:43.667Z,3.67
2019-01-14T10:51:43.677Z,3.58
2019-01-14T10:52:43.643Z,3.76
2019-01-14T10:53:43.633Z,3.72
2019-01-14T10:54:43.623Z,3.58
2019-01-14T10:55:43.617Z,3.52
2019-01-14T10:56:44.236Z,3.46
2019-01-14T10:57:43.605Z,3.39
2019-01-14T10:58:43.578Z,3.30
2019-01-14T10:59:43.567Z,3.34
2019-01-14T11:00:43.556Z,3.24
2019-01-14T11:01:43.548Z,3.36
2019-01-14T11:02:47.813Z,3.33
2019-01-14T11:03:43.523Z,3.25
2019-01-14T11:04:43.513Z,3.27
2019-01-14T11:05:43.505Z,3.27
2019-01-14T11:06:43.490Z,3.28
2019-01-14T11:07:43.489Z,3.27
2019-01-14T11:08:43.493Z,3.23
2019-01-14T11:09:44.681Z,3.36
2019-01-14T11:10:43.447Z,3.36
2019-01-14T11:11:43.434Z,3.39
2019-01-14T11:12:43.424Z,3.36
2019-01-14T11:13:43.431Z,3.34
2019-01-14T11:14:43.403Z,3.34
2019-01-14T11:15:43.402Z,3.47
2019-01-14T11:16:43.380Z,3.34
2019-01-14T11:17:43.368Z,3.57
2019-01-14T11:18:43.400Z,3.62
2019-01-14T11:19:43.354Z,3.85
2019-01-14T11:20:43.342Z,3.89
2019-01-14T11:21:43.324Z,3.92
2019-01-14T11:22:43.314Z,3.83
2019-01-14T11:23:43.308Z,3.94
2019-01-14T11:24:43.304Z,4.00
2019-01-14T11:25:43.281Z,3.97
2019-01-14T11:26:43.273Z,4.00
2019-01-14T11:27:43.280Z,4.08
2019-01-14T11:28:43.247Z,4.06
2019-01-14T11:29:43.236Z,4.01
2019-01-14T11:30:43.224Z,4.16
2019-01-14T11:31:43.214Z,4.08
2019-01-14T11:32:43.210Z,4.01
2019-01-14T11:33:43.217Z,3.98
2019-01-14T11:34:43.182Z,4.04
2019-01-14T11:35:43.213Z,4.07
2019-01-14T11:36:43.157Z,4.01
2019-01-14T11:37:43.146Z,3.98
2019-01-14T11:38:43.138Z,3.82
2019-01-14T11:39:43.124Z,3.85
2019-01-14T11:40:43.113Z,3.80
2019-01-14T11:41:43.122Z,3.76
2019-01-14T11:42:43.093Z,3.72
2019-01-14T11:43:43.080Z,3.65
2019-01-14T11:44:43.070Z,3.54
2019-01-14T11:45:43.063Z,3.58
2019-01-14T11:46:43.073Z,3.57
2019-01-14T11:47:43.037Z,3.54
2019-01-14T11:48:43.024Z,3.60
2019-01-14T11:49:43.014Z,3.58
2019-01-14T11:50:43.004Z,3.67
2019-01-14T11:51:42.996Z,3.80
2019-01-14T11:52:43.000Z,3.68
2019-01-14T11:53:42.968Z,3.75
2019-01-14T11:54:42.957Z,3.61
2019-01-14T11:55:42.946Z,3.75
2019-01-14T11:56:42.957Z,3.71
2019-01-14T11:57:42.962Z,3.62
2019-01-14T11:58:42.913Z,3.64
2019-01-14T11:59:42.904Z,3.72
2019-01-14T12:00:42.893Z,3.67
2019-01-14T12:01:42.881Z,3.64
2019-01-14T12:02:42.870Z,3.62
2019-01-14T12:03:42.888Z,3.58
2019-01-14T12:04:42.850Z,3.52
2019-01-14T12:05:42.838Z,3.50
2019-01-14T12:06:42.828Z,3.50
2019-01-14T12:07:42.835Z,3.44
2019-01-14T12:08:42.804Z,3.49
2019-01-14T12:09:42.799Z,3.49
2019-01-14T12:10:42.783Z,3.53
2019-01-14T12:11:42.771Z,3.50
2019-01-14T12:12:42.779Z,3.44
2019-01-14T12:13:42.750Z,3.43
2019-01-14T12:14:42.756Z,3.43
2019-01-14T12:15:42.731Z,3.44
2019-01-14T12:16:42.719Z,3.40
2019-01-14T12:17:42.712Z,3.25
2019-01-14T12:18:42.694Z,3.15
2019-01-14T12:19:42.702Z,3.12
2019-01-14T12:20:42.671Z,3.05
2019-01-14T12:21:42.662Z,2.98
2019-01-14T12:22:42.652Z,2.95
2019-01-14T12:23:42.645Z,2.98
2019-01-14T12:24:42.648Z,3.06
2019-01-14T12:25:42.636Z,3.07
2019-01-14T12:26:42.607Z,3.13
2019-01-14T12:27:42.597Z,3.16
2019-01-14T12:28:42.584Z,3.25
2019-01-14T12:29:42.578Z,3.31
2019-01-14T12:30:42.582Z,3.24
2019-01-14T12:31:42.552Z,3.24
2019-01-14T12:32:42.541Z,3.25
2019-01-14T12:33:42.529Z,3.13
2019-01-14T12:34:42.520Z,3.10
2019-01-14T12:35:42.535Z,3.03
2019-01-14T12:36:42.518Z,3.03
2019-01-14T12:37:42.487Z,2.92
2019-01-14T12:38:42.476Z,2.89
2019-01-14T12:39:42.465Z,2.87
2019-01-14T12:40:42.454Z,2.73
2019-01-14T12:41:42.492Z,2.81
2019-01-14T12:42:42.431Z,2.85
2019-01-14T12:43:42.426Z,2.77
2019-01-14T12:44:42.414Z,2.81
2019-01-14T12:45:42.399Z,2.82
2019-01-14T12:46:42.393Z,2.89
2019-01-14T12:47:42.404Z,2.88
2019-01-14T12:48:42.366Z,3.03
2019-01-14T12:49:42.376Z,3.00
2019-01-14T12:50:42.348Z,3.24
2019-01-14T12:51:42.337Z,3.27
2019-01-14T12:52:42.346Z,3.33
2019-01-14T12:53:42.317Z,3.42
2019-01-14T12:54:42.299Z,3.57
2019-01-14T12:55:42.289Z,3.67
2019-01-14T12:56:42.278Z,3.68
2019-01-14T12:57:42.269Z,3.64
2019-01-14T12:58:42.277Z,3.67
2019-01-14T12:59:42.247Z,3.62
2019-01-14T13:00:42.235Z,3.68
2019-01-14T13:01:42.224Z,3.54
2019-01-14T13:02:42.212Z,3.49
2019-01-14T13:03:42.244Z,3.36
2019-01-14T13:04:42.192Z,3.42
2019-01-14T13:05:42.181Z,3.39
2019-01-14T13:06:42.172Z,3.30
2019-01-14T13:07:42.158Z,3.36
2019-01-14T13:08:42.145Z,3.34
2019-01-14T13:09:42.159Z,3.36
2019-01-14T13:10:42.124Z,3.25
2019-01-14T13:11:42.114Z,3.28
2019-01-14T13:12:42.108Z,3.20
2019-01-14T13:13:42.116Z,3.12
2019-01-14T13:14:42.082Z,3.18
2019-01-14T13:15:42.069Z,3.09
2019-01-14T13:16:42.059Z,2.98
2019-01-14T13:17:42.047Z,2.81
2019-01-14T13:18:42.072Z,2.64